South Aberdeen, Washington
Current Conditions -  °F | °C
As of 10:53 PM on Tuesday 25 Nov 2014 (Local Time) from KHQM Reporting Station
Haze Haze  
Wind Chill: 13°   Ceiling: 700
Heat Index: 13°   Visibility: 6mi
Dew Point: 12°   Wind: 21mph
Humidity: 96%   Direction: 200°SSW
Pressure: 30.2"   Gusts: NA
Location:  47.1445°N, 123.771°W
Report Text: KHQM 260653Z AUTO 20018KT 6SM BR OVC007 13/12 A3020 RMK AO2 PK WND 20026/0558 RAE02 SLP230 P0000 T01280122
Loading
Personal Weather Stations






























Interactive Weather Map New forecast layout! Learn more

10-Day Weather Forecast

Advertisements
Track Severe Weather on mobile